Brisbane Airport Weather forecast (YBBN – BNE)

METAR

TTF SPECI YBBN 191630Z 20004KT 9999 MIFG NSC 16/14 Q1015 RMK RF00.0/000.0 SHALLOW FOG PATCHES FM1800 19010KT 9999 FEW025

TAF

TAF YBBN 191120Z 1912/2018 35013KT CAVOK FM191600 19005KT 9999 FEW025 FM192300 13013KT 9999 FEW040 FM200300 10012KT 9999 SCT030 FM201400 19006KT 9999 BKN030 RMK T 20 18 16 17 Q 1016 1015 1016 1019

QNH 

1015

Temperature & Dew Point

12° DP14